Time;durP1;ratioP1;P1;durP2;ratioP2;P2;SDS_P1;SDS_P2;PMS_P1;PMS_P2;Temp;Humidity;BMP_temperature;BMP_pressure;BME280_temperature;BME280_humidity;BME280_pressure;Samples;Min_cycle;Max_cycle;Signal;HPM_P1;HPM_P2
2022/04/08 00:00:57;;;;;;;3.10;0.95;;;8.00;99.90;;;;;;4954312;29;20031;-77
2022/04/08 00:03:24;;;;;;;6.90;2.28;;;8.00;99.90;;;;;;4936139;29;20027;-76
2022/04/08 00:05:51;;;;;;;4.60;2.05;;;8.00;99.90;;;;;;4952711;29;20027;-77
2022/04/08 00:08:17;;;;;;;1.95;0.57;;;7.90;99.90;;;;;;4953407;29;20031;-76
2022/04/08 00:10:43;;;;;;;0.60;0.60;;;7.90;99.90;;;;;;4953369;29;20110;-76
2022/04/08 00:13:08;;;;;;;1.92;0.88;;;7.90;99.90;;;;;;4954134;29;20038;-76
2022/04/08 00:15:38;;;;;;;6.25;1.27;;;7.90;99.90;;;;;;4952577;29;20023;-76
2022/04/08 00:18:07;;;;;;;3.33;0.90;;;7.80;99.90;;;;;;4953390;29;20077;-76
2022/04/08 00:20:33;;;;;;;4.70;1.00;;;7.80;99.90;;;;;;4954904;29;20564;-76
2022/04/08 00:23:01;;;;;;;8.02;2.60;;;7.70;99.90;;;;;;4954649;29;20027;-79
2022/04/08 00:25:27;;;;;;;3.78;0.93;;;7.80;99.90;;;;;;4936906;29;20027;-77
2022/04/08 00:27:55;;;;;;;6.68;2.20;;;7.80;99.90;;;;;;4953097;28;20051;-76
2022/04/08 00:30:21;;;;;;;5.70;1.67;;;7.80;99.90;;;;;;4953321;29;20031;-76
2022/04/08 00:32:47;;;;;;;4.75;1.75;;;7.80;99.90;;;;;;4952252;28;20029;-76
2022/04/08 00:35:12;;;;;;;3.10;0.90;;;7.80;99.90;;;;;;4952755;29;20023;-76
2022/04/08 00:37:40;;;;;;;6.25;1.80;;;7.80;99.90;;;;;;4952603;29;20119;-76
2022/04/08 00:40:07;;;;;;;4.53;1.40;;;7.80;99.90;;;;;;4952433;29;20042;-76
2022/04/08 00:42:33;;;;;;;7.25;1.15;;;7.80;99.90;;;;;;4952875;29;20031;-76
2022/04/08 00:44:59;;;;;;;11.27;1.30;;;7.80;99.90;;;;;;4952594;29;20098;-76
2022/04/08 00:47:25;;;;;;;6.95;1.85;;;7.80;99.90;;;;;;4935036;29;20031;-76
2022/04/08 00:49:52;;;;;;;6.95;2.10;;;7.80;99.90;;;;;;4952205;29;20439;-76
2022/04/08 00:52:18;;;;;;;4.88;1.30;;;7.70;99.90;;;;;;4953976;29;20023;-76
2022/04/08 00:54:45;;;;;;;7.55;1.20;;;7.80;99.90;;;;;;4953444;29;20027;-76
2022/04/08 00:57:12;;;;;;;3.20;0.68;;;7.70;99.90;;;;;;4953484;29;20026;-76
2022/04/08 00:59:38;;;;;;;4.03;0.80;;;7.80;99.90;;;;;;4952606;29;20031;-76
2022/04/08 01:02:04;;;;;;;4.93;1.40;;;7.80;99.90;;;;;;4935461;29;20392;-76
2022/04/08 01:04:30;;;;;;;10.45;1.40;;;7.80;99.90;;;;;;4953421;29;20033;-77
2022/04/08 01:06:56;;;;;;;2.47;1.20;;;7.70;99.90;;;;;;4952550;29;20035;-76
2022/04/08 01:09:24;;;;;;;2.28;0.98;;;7.80;99.90;;;;;;4952387;29;20039;-76
2022/04/08 01:11:49;;;;;;;6.75;1.88;;;7.80;99.90;;;;;;4952848;29;20055;-77
2022/04/08 01:14:16;;;;;;;10.18;1.50;;;7.80;99.90;;;;;;4951933;29;20047;-76
2022/04/08 01:16:42;;;;;;;3.58;1.50;;;7.80;99.90;;;;;;4952919;29;20023;-76
2022/04/08 01:19:08;;;;;;;9.30;1.98;;;7.80;99.90;;;;;;4954877;29;20506;-76
2022/04/08 01:21:34;;;;;;;8.32;1.20;;;7.80;99.90;;;;;;4954554;29;20035;-77
2022/04/08 01:24:01;;;;;;;7.05;1.90;;;7.80;99.90;;;;;;4954232;29;20114;-76
2022/04/08 01:26:27;;;;;;;7.00;1.05;;;7.80;99.90;;;;;;4952874;29;20504;-76
2022/04/08 01:28:54;;;;;;;6.35;1.83;;;7.80;99.90;;;;;;4953300;29;20062;-77
2022/04/08 01:31:23;;;;;;;4.93;1.00;;;7.80;99.90;;;;;;4954131;29;20027;-77
2022/04/08 01:33:50;;;;;;;8.77;1.63;;;7.90;99.90;;;;;;4954702;29;20046;-77
2022/04/08 01:36:16;;;;;;;6.85;1.42;;;7.90;99.90;;;;;;4953584;29;20027;-76
2022/04/08 01:38:42;;;;;;;3.83;1.00;;;7.90;99.90;;;;;;4952705;29;20086;-76
2022/04/08 01:41:07;;;;;;;5.22;1.67;;;8.00;99.90;;;;;;4952688;29;20035;-77
2022/04/08 01:43:33;;;;;;;6.85;1.95;;;8.00;99.90;;;;;;4953078;29;20039;-77
2022/04/08 01:45:58;;;;;;;7.38;1.55;;;8.00;99.90;;;;;;4955525;28;20019;-77
2022/04/08 01:48:24;;;;;;;6.05;1.13;;;8.00;99.90;;;;;;4956929;29;20028;-77
2022/04/08 01:50:50;;;;;;;6.38;1.10;;;8.00;99.90;;;;;;4939829;29;20365;-76
2022/04/08 01:53:16;;;;;;;3.40;1.23;;;8.00;99.90;;;;;;4957437;29;20023;-76
2022/04/08 01:55:42;;;;;;;3.67;1.73;;;8.00;99.90;;;;;;4956657;29;20024;-76
2022/04/08 01:58:07;;;;;;;10.45;2.50;;;8.10;99.90;;;;;;4940296;29;20054;-76
2022/04/08 02:00:33;;;;;;;4.40;2.28;;;8.00;99.90;;;;;;4957100;29;20054;-76
2022/04/08 02:03:00;;;;;;;3.08;0.80;;;8.00;99.90;;;;;;4956820;29;20027;-77
2022/04/08 02:05:26;;;;;;;5.82;0.98;;;8.00;99.90;;;;;;4956665;29;20258;-76
2022/04/08 02:07:53;;;;;;;3.63;1.00;;;7.90;99.90;;;;;;4957344;29;20650;-77
2022/04/08 02:10:19;;;;;;;2.08;1.60;;;8.00;99.90;;;;;;4957168;29;20375;-77
2022/04/08 02:12:44;;;;;;;2.67;1.20;;;7.90;99.90;;;;;;4941168;29;20078;-77
2022/04/08 02:15:11;;;;;;;8.15;1.48;;;7.90;99.90;;;;;;4957164;29;20024;-76
2022/04/08 02:17:37;;;;;;;4.35;1.25;;;7.90;99.90;;;;;;4956918;29;20055;-76
2022/04/08 02:20:04;;;;;;;5.32;1.98;;;7.90;99.90;;;;;;4954964;29;20035;-76
2022/04/08 02:22:31;;;;;;;4.97;1.38;;;7.90;99.90;;;;;;4954722;29;20027;-77
2022/04/08 02:24:58;;;;;;;6.07;1.10;;;7.80;99.90;;;;;;4938560;29;20056;-76
2022/04/08 02:27:26;;;;;;;5.68;1.70;;;7.70;99.90;;;;;;4955655;29;20465;-76
2022/04/08 02:29:52;;;;;;;2.95;1.10;;;7.70;99.90;;;;;;4955774;29;20055;-76
2022/04/08 02:32:18;;;;;;;4.15;1.50;;;7.70;99.90;;;;;;4939177;29;20035;-77
2022/04/08 02:34:44;;;;;;;2.58;0.95;;;7.70;99.90;;;;;;4956910;29;20035;-77
2022/04/08 02:37:10;;;;;;;6.97;1.83;;;7.60;99.90;;;;;;4956620;29;20143;-77
2022/04/08 02:39:35;;;;;;;6.10;1.85;;;7.60;99.90;;;;;;4956747;29;20110;-77
2022/04/08 02:42:01;;;;;;;5.30;1.20;;;7.60;99.90;;;;;;4939863;29;20511;-76
2022/04/08 02:44:30;;;;;;;1.48;1.30;;;7.60;99.90;;;;;;4956821;29;20039;-77
2022/04/08 02:46:57;;;;;;;4.55;1.10;;;7.60;99.90;;;;;;4956392;29;20539;-77
2022/04/08 02:49:23;;;;;;;3.58;1.13;;;7.60;99.90;;;;;;4940751;29;20035;-77
2022/04/08 02:51:49;;;;;;;1.83;1.05;;;7.60;99.90;;;;;;4957247;29;20365;-77
2022/04/08 02:54:15;;;;;;;5.32;1.42;;;7.60;99.90;;;;;;4955982;29;20035;-77
2022/04/08 02:56:41;;;;;;;2.70;1.30;;;7.50;99.90;;;;;;4955922;28;20094;-77
2022/04/08 02:59:08;;;;;;;6.95;2.15;;;7.50;99.90;;;;;;4956311;29;20039;-77
2022/04/08 03:01:33;;;;;;;4.03;1.70;;;7.50;99.90;;;;;;4941298;29;20444;-77
2022/04/08 03:03:59;;;;;;;6.32;1.02;;;7.50;99.90;;;;;;4957717;29;20043;-77
2022/04/08 03:06:26;;;;;;;11.85;1.50;;;7.40;99.90;;;;;;4957419;29;20015;-76
2022/04/08 03:08:52;;;;;;;9.13;1.45;;;7.40;99.90;;;;;;4956953;29;20054;-77
2022/04/08 03:11:18;;;;;;;2.40;1.00;;;7.40;99.90;;;;;;4955171;29;20023;-77
2022/04/08 03:13:44;;;;;;;8.43;1.25;;;7.40;99.90;;;;;;4955075;29;20062;-77
2022/04/08 03:16:10;;;;;;;3.28;1.30;;;7.40;99.90;;;;;;4922803;29;20054;-77
2022/04/08 03:18:36;;;;;;;6.32;1.42;;;7.40;99.90;;;;;;4954802;29;20039;-77
2022/04/08 03:21:02;;;;;;;6.50;1.13;;;7.40;99.90;;;;;;4955310;29;20082;-77
2022/04/08 03:23:28;;;;;;;4.90;0.88;;;7.50;99.90;;;;;;4954248;29;20031;-77
2022/04/08 03:25:53;;;;;;;7.78;0.95;;;7.50;99.90;;;;;;4954524;29;20033;-78
2022/04/08 03:28:19;;;;;;;5.97;1.00;;;7.50;99.90;;;;;;4937617;29;20190;-77
2022/04/08 03:30:46;;;;;;;11.65;1.25;;;7.40;99.90;;;;;;4955378;29;20055;-78
2022/04/08 03:33:12;;;;;;;5.15;1.05;;;7.40;99.90;;;;;;4954636;29;20023;-77
2022/04/08 03:35:37;;;;;;;4.40;1.10;;;7.40;99.90;;;;;;4937899;29;20162;-78
2022/04/08 03:38:04;;;;;;;3.85;2.38;;;7.30;99.90;;;;;;4954952;29;20106;-78
2022/04/08 03:40:31;;;;;;;4.30;1.45;;;7.30;99.90;;;;;;4954036;29;20035;-77
2022/04/08 03:42:56;;;;;;;4.28;1.00;;;7.30;99.90;;;;;;4954242;29;20435;-77
2022/04/08 03:45:22;;;;;;;4.45;0.82;;;7.20;99.90;;;;;;4954253;29;20034;-79
2022/04/08 03:47:48;;;;;;;8.02;1.00;;;7.10;99.90;;;;;;4953828;29;20338;-77
2022/04/08 03:50:14;;;;;;;8.13;1.00;;;7.10;99.90;;;;;;4937028;29;20034;-77
2022/04/08 03:52:40;;;;;;;6.70;2.08;;;7.10;99.90;;;;;;4953235;29;20031;-77
2022/04/08 03:55:06;;;;;;;3.20;0.80;;;7.10;99.90;;;;;;4953088;29;20082;-77
2022/04/08 03:57:32;;;;;;;4.07;1.20;;;7.00;99.90;;;;;;4953026;29;20488;-77
2022/04/08 03:59:58;;;;;;;4.07;1.25;;;7.00;99.90;;;;;;4953273;29;20046;-78
2022/04/08 04:02:24;;;;;;;1.30;0.70;;;6.90;99.90;;;;;;4953233;29;20472;-77
2022/04/08 04:04:50;;;;;;;5.85;1.00;;;6.90;99.90;;;;;;4953556;29;20613;-78
2022/04/08 04:07:17;;;;;;;3.08;0.98;;;6.90;99.90;;;;;;4952581;28;20359;-77
2022/04/08 04:09:44;;;;;;;4.90;1.30;;;6.90;99.90;;;;;;4953000;29;20074;-79
2022/04/08 04:12:10;;;;;;;9.77;1.10;;;6.90;99.90;;;;;;4935827;29;20027;-78
2022/04/08 04:14:36;;;;;;;1.30;0.90;;;6.90;99.90;;;;;;4953359;29;20043;-78
2022/04/08 04:17:03;;;;;;;3.28;0.88;;;6.90;99.90;;;;;;4935801;29;20053;-78
2022/04/08 04:19:28;;;;;;;3.17;1.38;;;6.90;99.90;;;;;;4952935;29;20073;-77
2022/04/08 04:21:54;;;;;;;2.70;1.10;;;6.90;99.90;;;;;;4952851;29;20055;-77
2022/04/08 04:24:20;;;;;;;2.95;0.90;;;6.90;99.90;;;;;;4952135;29;20034;-77
2022/04/08 04:26:45;;;;;;;2.95;0.98;;;6.20;99.90;;;;;;4952226;29;20071;-77
2022/04/08 04:29:12;;;;;;;8.50;1.73;;;6.90;99.90;;;;;;4952627;28;20055;-77
2022/04/08 04:31:38;;;;;;;1.60;1.30;;;7.00;99.90;;;;;;4953064;29;20030;-77
2022/04/08 04:34:04;;;;;;;2.13;1.33;;;7.00;99.90;;;;;;4952818;29;20106;-78
2022/04/08 04:36:30;;;;;;;2.35;0.95;;;7.00;99.90;;;;;;4953416;29;20107;-77
2022/04/08 04:38:56;;;;;;;5.10;1.23;;;7.00;99.90;;;;;;4952879;29;20039;-77
2022/04/08 04:41:21;;;;;;;7.05;1.27;;;7.00;99.90;;;;;;4952533;29;20098;-76
2022/04/08 04:43:47;;;;;;;5.15;1.55;;;7.00;99.90;;;;;;4953015;29;20027;-77
2022/04/08 04:46:13;;;;;;;5.93;1.52;;;6.90;99.90;;;;;;4952486;29;20068;-77
2022/04/08 04:48:38;;;;;;;5.45;1.23;;;6.90;99.90;;;;;;4952415;29;20030;-77
2022/04/08 04:51:04;;;;;;;7.18;1.65;;;6.90;99.90;;;;;;4952236;29;20471;-77
2022/04/08 04:53:30;;;;;;;2.63;1.25;;;6.90;99.90;;;;;;4935161;29;20085;-78
2022/04/08 04:55:56;;;;;;;6.28;1.40;;;6.90;99.90;;;;;;4952475;29;20023;-77
2022/04/08 04:58:25;;;;;;;1.83;1.30;;;6.90;99.90;;;;;;4953547;29;20047;-77
2022/04/08 05:00:50;;;;;;;2.38;1.25;;;6.90;99.90;;;;;;4953320;29;20027;-76
2022/04/08 05:03:16;;;;;;;1.58;1.13;;;7.30;99.90;;;;;;4953143;29;20190;-76
2022/04/08 05:05:42;;;;;;;3.88;0.90;;;7.60;99.90;;;;;;4953791;29;20061;-77
2022/04/08 05:08:08;;;;;;;1.42;0.45;;;7.80;99.90;;;;;;4953662;29;20023;-76
2022/04/08 05:10:33;;;;;;;2.92;0.38;;;8.10;99.90;;;;;;4954295;29;20556;-77
2022/04/08 05:12:59;;;;;;;0.30;0.30;;;8.20;99.90;;;;;;4954732;29;20027;-77
2022/04/08 05:15:26;;;;;;;1.75;0.50;;;8.50;99.90;;;;;;4938052;29;20070;-78
2022/04/08 05:17:52;;;;;;;1.63;0.45;;;8.40;99.90;;;;;;4953799;29;20023;-77
2022/04/08 05:20:18;;;;;;;2.00;0.50;;;8.30;99.90;;;;;;4955180;28;20102;-77
2022/04/08 05:22:44;;;;;;;2.75;0.40;;;8.20;99.90;;;;;;4958776;29;20469;-78
2022/04/08 05:25:10;;;;;;;4.30;0.63;;;8.30;99.90;;;;;;4958821;29;20038;-77
2022/04/08 05:27:41;;;;;;;2.03;0.50;;;8.30;99.90;;;;;;4956592;29;20516;-76
2022/04/08 05:30:21;;;;;;;1.02;0.50;;;8.30;99.90;;;;;;4957261;29;20511;-77
2022/04/08 05:32:47;;;;;;;0.40;0.40;;;8.30;99.90;;;;;;4940758;29;20492;-77
2022/04/08 05:35:17;;;;;;;3.00;0.40;;;8.20;99.90;;;;;;4957608;29;20166;-77
2022/04/08 05:37:45;;;;;;;0.45;0.45;;;8.20;99.90;;;;;;4942475;29;20510;-77
2022/04/08 05:40:20;;;;;;;0.55;0.40;;;8.10;99.90;;;;;;4940633;29;20544;-77
2022/04/08 05:42:49;;;;;;;0.60;0.40;;;8.00;99.90;;;;;;4941169;29;20031;-77
2022/04/08 05:45:21;;;;;;;0.82;0.40;;;8.00;99.90;;;;;;4957838;29;20035;-76
2022/04/08 05:47:50;;;;;;;0.35;0.35;;;8.00;99.90;;;;;;4957138;29;20024;-77
2022/04/08 05:50:18;;;;;;;3.92;1.00;;;8.00;99.90;;;;;;4957369;29;20023;-76
2022/04/08 05:52:45;;;;;;;1.70;0.43;;;8.10;99.90;;;;;;4957050;29;20019;-77
2022/04/08 05:55:11;;;;;;;1.88;0.40;;;8.10;99.90;;;;;;4956612;29;20027;-77
2022/04/08 05:57:41;;;;;;;0.85;0.30;;;8.10;99.90;;;;;;4956655;29;20027;-77
2022/04/08 06:00:10;;;;;;;3.30;1.08;;;8.10;99.90;;;;;;4940099;29;20043;-77
2022/04/08 06:02:39;;;;;;;0.70;0.30;;;8.10;99.90;;;;;;4955160;29;20033;-77
2022/04/08 06:05:06;;;;;;;0.20;0.20;;;8.10;99.90;;;;;;4938156;29;20058;-77
2022/04/08 06:07:31;;;;;;;0.52;0.40;;;8.20;99.90;;;;;;4954644;29;20038;-77
2022/04/08 06:10:00;;;;;;;1.67;0.50;;;8.20;99.90;;;;;;4954842;29;20413;-77
2022/04/08 06:12:26;;;;;;;4.10;0.77;;;8.20;99.90;;;;;;4937905;29;20552;-77
2022/04/08 06:14:53;;;;;;;0.68;0.57;;;8.30;99.90;;;;;;4954521;29;20118;-77
2022/04/08 06:17:19;;;;;;;0.40;0.40;;;8.30;99.90;;;;;;4955064;29;20019;-77
2022/04/08 06:19:46;;;;;;;0.85;0.40;;;8.30;99.90;;;;;;4954376;29;20392;-76
2022/04/08 06:22:13;;;;;;;0.70;0.30;;;8.30;99.90;;;;;;4937638;29;20097;-77
2022/04/08 06:24:39;;;;;;;1.60;0.40;;;10.20;99.90;;;;;;4954141;29;20107;-77
2022/04/08 06:27:05;;;;;;;3.22;0.50;;;8.30;99.90;;;;;;4937088;29;20564;-77
2022/04/08 06:29:31;;;;;;;2.05;0.32;;;8.30;99.90;;;;;;4954055;28;20059;-77
2022/04/08 06:31:57;;;;;;;2.80;0.70;;;8.30;99.90;;;;;;4953644;28;20106;-77
2022/04/08 06:34:23;;;;;;;1.98;1.00;;;8.40;99.90;;;;;;4954077;29;20111;-77
2022/04/08 06:36:48;;;;;;;0.40;0.40;;;8.50;99.90;;;;;;4954133;29;20026;-77
2022/04/08 06:39:14;;;;;;;1.65;0.50;;;8.50;99.90;;;;;;4953533;29;20031;-77
2022/04/08 06:41:40;;;;;;;0.45;0.45;;;8.50;99.90;;;;;;4953998;29;20476;-77
2022/04/08 06:44:06;;;;;;;0.68;0.40;;;8.60;99.90;;;;;;4954324;29;20035;-77
2022/04/08 06:46:31;;;;;;;1.42;0.43;;;8.60;99.90;;;;;;4936707;29;20035;-77
2022/04/08 06:49:02;;;;;;;0.22;0.22;;;8.60;99.90;;;;;;4954115;29;20031;-78
2022/04/08 06:51:31;;;;;;;2.63;0.50;;;8.60;99.90;;;;;;4953708;29;20026;-77
2022/04/08 06:53:57;;;;;;;2.40;0.73;;;8.60;99.90;;;;;;4953481;29;20027;-77
2022/04/08 06:56:22;;;;;;;2.13;0.30;;;8.70;99.90;;;;;;4953829;29;20030;-77
2022/04/08 06:58:50;;;;;;;0.32;0.32;;;8.80;99.90;;;;;;4953775;29;20039;-77
2022/04/08 07:01:16;;;;;;;0.30;0.30;;;8.80;99.90;;;;;;4954039;29;20519;-78
2022/04/08 07:03:42;;;;;;;3.70;1.27;;;8.80;99.90;;;;;;4954442;29;20035;-77
2022/04/08 07:06:08;;;;;;;1.10;0.43;;;8.80;99.90;;;;;;4953627;29;20117;-77
2022/04/08 07:08:34;;;;;;;0.50;0.50;;;8.70;99.90;;;;;;4953114;29;20027;-77
2022/04/08 07:11:02;;;;;;;2.65;0.80;;;8.80;99.90;;;;;;4954291;29;20023;-77
2022/04/08 07:13:28;;;;;;;1.42;0.65;;;8.80;99.90;;;;;;4953572;29;20023;-77
2022/04/08 07:15:54;;;;;;;2.72;0.30;;;8.90;99.90;;;;;;4953239;29;20078;-77
2022/04/08 07:18:21;;;;;;;3.80;1.90;;;8.70;99.90;;;;;;4953805;29;20034;-78
2022/04/08 07:20:47;;;;;;;1.33;0.70;;;8.70;99.90;;;;;;4936239;29;20023;-77
2022/04/08 07:23:13;;;;;;;1.85;0.70;;;8.70;99.90;;;;;;4953979;29;20486;-77
2022/04/08 07:25:39;;;;;;;4.15;1.67;;;8.70;99.90;;;;;;4936272;29;20246;-76
2022/04/08 07:28:05;;;;;;;0.73;0.50;;;8.60;99.90;;;;;;4953047;29;20396;-77
2022/04/08 07:30:31;;;;;;;2.95;1.50;;;8.70;99.90;;;;;;4953264;29;20051;-77
2022/04/08 07:32:56;;;;;;;7.30;5.57;;;8.90;99.90;;;;;;4936123;29;20033;-77
2022/04/08 07:35:25;;;;;;;8.77;3.50;;;8.90;99.90;;;;;;4953112;29;20474;-77
2022/04/08 07:37:51;;;;;;;7.60;4.03;;;9.10;99.90;;;;;;4952948;29;20024;-77
2022/04/08 07:40:17;;;;;;;10.57;7.47;;;9.30;99.90;;;;;;4952803;29;20047;-77
2022/04/08 07:42:43;;;;;;;8.60;4.22;;;9.40;99.90;;;;;;4952620;28;20027;-77
2022/04/08 07:45:09;;;;;;;7.50;4.63;;;9.30;99.90;;;;;;4953048;29;20610;-77
2022/04/08 07:47:35;;;;;;;7.78;2.80;;;9.40;99.90;;;;;;4935779;29;20027;-77
2022/04/08 07:50:13;;;;;;;5.28;2.28;;;9.50;99.90;;;;;;4952695;29;20027;-77
2022/04/08 07:52:39;;;;;;;2.70;1.63;;;11.60;99.90;;;;;;4952956;29;20106;-77
2022/04/08 07:55:07;;;;;;;5.53;1.80;;;9.60;99.90;;;;;;4935140;29;20110;-77
2022/04/08 07:57:33;;;;;;;2.05;1.27;;;9.50;99.90;;;;;;4952875;29;20066;-77
2022/04/08 08:00:03;;;;;;;4.00;1.42;;;9.60;99.90;;;;;;4952876;29;20050;-78
2022/04/08 08:02:29;;;;;;;3.10;0.98;;;9.50;99.90;;;;;;4952851;29;20027;-77
2022/04/08 08:04:55;;;;;;;1.88;1.52;;;9.40;99.90;;;;;;4952448;29;20094;-77
2022/04/08 08:07:20;;;;;;;3.28;0.95;;;9.30;99.90;;;;;;4952526;29;20031;-77
2022/04/08 08:09:49;;;;;;;1.70;1.02;;;9.30;99.90;;;;;;4952668;29;20031;-77
2022/04/08 08:12:15;;;;;;;2.17;0.93;;;9.40;99.90;;;;;;4952844;29;20024;-77
2022/04/08 08:14:40;;;;;;;2.65;1.35;;;9.20;99.90;;;;;;4952379;29;20102;-78
2022/04/08 08:17:06;;;;;;;2.88;0.70;;;9.20;99.90;;;;;;4952493;29;20023;-77
2022/04/08 08:19:32;;;;;;;2.60;1.10;;;9.30;99.90;;;;;;4952971;29;20039;-79
2022/04/08 08:21:58;;;;;;;1.77;0.70;;;9.40;99.90;;;;;;4952362;29;20428;-77
2022/04/08 08:24:24;;;;;;;0.90;0.90;;;9.30;99.90;;;;;;4935016;29;20058;-77
2022/04/08 08:26:50;;;;;;;1.20;1.10;;;9.50;99.90;;;;;;4952601;29;20479;-77
2022/04/08 08:29:15;;;;;;;7.18;1.23;;;9.40;99.90;;;;;;4951974;29;20660;-77
2022/04/08 08:31:41;;;;;;;1.83;1.15;;;9.40;99.90;;;;;;4952414;29;20123;-77
2022/04/08 08:34:07;;;;;;;18.70;9.05;;;9.50;99.90;;;;;;4952371;29;20075;-77
2022/04/08 08:36:33;;;;;;;8.18;3.55;;;9.40;99.90;;;;;;4952475;29;20020;-77
2022/04/08 08:39:00;;;;;;;15.63;7.55;;;9.50;99.90;;;;;;4951802;29;20039;-77
2022/04/08 08:41:26;;;;;;;2.20;1.73;;;9.60;99.90;;;;;;4951967;29;20491;-77
2022/04/08 08:43:54;;;;;;;1.40;1.02;;;9.70;99.90;;;;;;4951844;29;20150;-77
2022/04/08 08:46:21;;;;;;;1.63;1.38;;;9.40;99.90;;;;;;4951518;29;20110;-77
2022/04/08 08:48:50;;;;;;;3.50;0.93;;;9.50;99.90;;;;;;4952084;29;20094;-78
2022/04/08 08:51:17;;;;;;;0.82;0.82;;;9.60;99.90;;;;;;4951675;29;20043;-77
2022/04/08 08:53:43;;;;;;;0.88;0.80;;;9.50;99.90;;;;;;4951171;28;20519;-77
2022/04/08 08:56:10;;;;;;;0.73;0.70;;;9.60;99.90;;;;;;4951758;29;20035;-76
2022/04/08 08:58:36;;;;;;;0.85;0.60;;;9.60;99.90;;;;;;4951734;29;20027;-77
2022/04/08 09:01:03;;;;;;;2.75;1.27;;;9.40;99.90;;;;;;4951869;29;20023;-77
2022/04/08 09:03:33;;;;;;;8.07;3.88;;;9.60;99.90;;;;;;4952286;29;20531;-77
2022/04/08 09:06:07;;;;;;;0.60;0.60;;;9.80;99.90;;;;;;4951736;29;20400;-77
2022/04/08 09:08:38;;;;;;;0.70;0.65;;;9.90;99.90;;;;;;4951264;29;20027;-76
2022/04/08 09:11:05;;;;;;;0.30;0.30;;;10.20;99.90;;;;;;4952300;29;20035;-77
2022/04/08 09:13:42;;;;;;;0.52;0.52;;;9.90;99.90;;;;;;4952538;29;20023;-77
2022/04/08 09:16:07;;;;;;;0.77;0.77;;;10.20;99.90;;;;;;4951937;29;20179;-77
2022/04/08 09:18:44;;;;;;;1.02;0.60;;;10.20;99.90;;;;;;4951721;29;20493;-77
2022/04/08 09:21:20;;;;;;;1.83;0.50;;;10.50;99.90;;;;;;4951371;29;20031;-78
2022/04/08 09:23:46;;;;;;;0.63;0.40;;;10.80;99.90;;;;;;4951158;29;20094;-77
2022/04/08 09:26:14;;;;;;;1.45;0.88;;;10.90;99.90;;;;;;4952098;29;20524;-77
2022/04/08 09:28:43;;;;;;;2.28;1.27;;;11.00;99.90;;;;;;4951624;28;20050;-78
2022/04/08 09:31:20;;;;;;;0.13;0.10;;;11.20;99.90;;;;;;4951571;29;20023;-76
2022/04/08 09:33:50;;;;;;;0.10;0.10;;;11.50;99.90;;;;;;4951781;29;20035;-77
2022/04/08 09:36:26;;;;;;;1.58;0.10;;;11.80;99.90;;;;;;4952189;29;20031;-77
2022/04/08 09:38:52;;;;;;;0.10;0.10;;;12.10;99.90;;;;;;4951207;29;20063;-76
2022/04/08 09:41:20;;;;;;;0.70;0.10;;;12.30;99.90;;;;;;4951668;29;20066;-77
2022/04/08 09:43:49;;;;;;;0.10;0.10;;;12.60;99.90;;;;;;4951742;29;20503;-76
2022/04/08 09:46:20;;;;;;;0.10;0.10;;;12.90;99.90;;;;;;4951824;29;20063;-77
2022/04/08 09:48:47;;;;;;;0.20;0.20;;;13.00;99.90;;;;;;4951856;29;20031;-76
2022/04/08 09:51:20;;;;;;;0.10;0.10;;;12.90;99.90;;;;;;4951561;29;20499;-77
2022/04/08 09:53:57;;;;;;;1.17;0.20;;;12.80;99.90;;;;;;4951460;29;20472;-76
2022/04/08 09:56:26;;;;;;;0.13;0.13;;;12.90;99.90;;;;;;4934097;29;20508;-76
2022/04/08 09:58:55;;;;;;;;;;;12.90;99.90;;;;;;4951736;29;20179;-77
2022/04/08 10:01:23;;;;;;;0.10;0.10;;;13.00;99.90;;;;;;4951887;29;19906;-77
2022/04/08 10:03:50;;;;;;;0.22;0.10;;;12.90;99.90;;;;;;4953121;29;20031;-76
2022/04/08 10:06:16;;;;;;;0.10;0.10;;;12.90;99.90;;;;;;4953552;28;20038;-77
2022/04/08 10:08:43;;;;;;;0.22;0.22;;;12.80;99.90;;;;;;4937370;29;20078;-76
2022/04/08 10:11:24;;;;;;;0.10;0.10;;;12.80;99.90;;;;;;4955204;29;20031;-76
2022/04/08 10:14:02;;;;;;;0.10;0.10;;;13.00;99.90;;;;;;4954546;29;20045;-77
2022/04/08 10:16:31;;;;;;;0.10;0.10;;;13.10;99.90;;;;;;4954934;29;20027;-78
2022/04/08 10:19:04;;;;;;;0.13;0.13;;;13.40;99.90;;;;;;4937220;29;20411;-77
2022/04/08 10:21:40;;;;;;;0.10;0.10;;;13.40;99.90;;;;;;4954603;29;20079;-77
2022/04/08 10:24:15;;;;;;;0.20;0.20;;;13.70;99.90;;;;;;4954145;29;20488;-77
2022/04/08 10:27:09;;;;;;;0.00;0.00;;;13.70;99.90;;;;;;4954552;29;20191;-77
2022/04/08 10:29:35;;;;;;;0.10;0.10;;;13.80;99.90;;;;;;4954513;28;20039;-77
2022/04/08 10:32:12;;;;;;;0.10;0.10;;;13.90;99.90;;;;;;4937279;29;20027;-77
2022/04/08 10:34:39;;;;;;;0.20;0.20;;;14.00;99.90;;;;;;4954934;29;20035;-77
2022/04/08 10:37:15;;;;;;;0.10;0.10;;;14.20;99.90;;;;;;4954533;29;20020;-77
2022/04/08 10:39:42;;;;;;;0.10;0.10;;;14.30;99.90;;;;;;4937483;29;20042;-77
2022/04/08 10:42:22;;;;;;;0.10;0.10;;;14.40;99.90;;;;;;4958091;29;20043;-77
2022/04/08 10:44:49;;;;;;;0.10;0.10;;;14.30;99.90;;;;;;4954762;29;20024;-76
2022/04/08 10:47:16;;;;;;;0.20;0.20;;;14.30;99.90;;;;;;4954623;29;20046;-77
2022/04/08 10:50:00;;;;;;;0.17;0.10;;;14.20;99.90;;;;;;4954348;29;20024;-77
2022/04/08 10:52:32;;;;;;;0.10;0.10;;;14.30;99.90;;;;;;4954381;29;20060;-76
2022/04/08 10:55:06;;;;;;;0.08;0.00;;;14.10;99.90;;;;;;4936675;29;20055;-76
2022/04/08 10:57:43;;;;;;;0.03;0.03;;;14.00;99.90;;;;;;4955661;29;20028;-77
2022/04/08 11:00:21;;;;;;;0.10;0.10;;;14.10;99.90;;;;;;4954777;29;20102;-76
2022/04/08 11:02:47;;;;;;;0.10;0.10;;;14.20;99.90;;;;;;4954115;29;20023;-77
2022/04/08 11:05:14;;;;;;;0.38;0.13;;;14.10;99.90;;;;;;4954805;29;20110;-76
2022/04/08 11:07:41;;;;;;;0.10;0.10;;;11.70;99.90;;;;;;4954428;29;20495;-76
2022/04/08 11:10:11;;;;;;;0.10;0.10;;;14.00;99.90;;;;;;4954664;29;20047;-76
2022/04/08 11:12:48;;;;;;;0.65;0.10;;;13.90;99.90;;;;;;4938454;29;20036;-76
2022/04/08 11:15:16;;;;;;;0.30;0.30;;;13.90;99.90;;;;;;4954242;29;20026;-76
2022/04/08 11:17:43;;;;;;;0.10;0.10;;;13.80;99.90;;;;;;4953465;28;20062;-76
2022/04/08 11:20:10;;;;;;;0.00;0.00;;;13.70;99.90;;;;;;4953782;29;20039;-76
2022/04/08 11:22:53;;;;;;;0.17;0.10;;;13.50;99.90;;;;;;4955387;29;20027;-75
2022/04/08 11:25:30;;;;;;;0.10;0.10;;;13.40;99.90;;;;;;4955163;29;20499;-75
2022/04/08 11:28:12;;;;;;;0.30;0.10;;;13.10;99.90;;;;;;4953144;28;20177;-76
2022/04/08 11:30:39;;;;;;;2.03;0.20;;;13.00;99.90;;;;;;4953316;29;20020;-76
2022/04/08 11:33:18;;;;;;;0.10;0.10;;;12.90;99.90;;;;;;4953708;29;20087;-76
2022/04/08 11:35:45;;;;;;;;;;;12.80;99.90;;;;;;4954215;29;20023;-77
2022/04/08 11:38:18;;;;;;;0.20;0.20;;;12.70;99.90;;;;;;4953393;29;19906;-76
2022/04/08 11:40:45;;;;;;;0.20;0.20;;;12.70;99.90;;;;;;4953040;29;20059;-76
2022/04/08 11:43:18;;;;;;;0.30;0.10;;;12.70;99.90;;;;;;4952917;29;20046;-76
2022/04/08 11:45:44;;;;;;;0.10;0.10;;;12.80;99.90;;;;;;4952803;29;20639;-76
2022/04/08 11:48:15;;;;;;;0.93;0.35;;;12.40;99.90;;;;;;4952949;29;20015;-76
2022/04/08 11:50:43;;;;;;;0.13;0.13;;;12.90;99.90;;;;;;4952613;29;20067;-77
2022/04/08 11:53:23;;;;;;;0.10;0.10;;;12.90;99.90;;;;;;4952282;29;20031;-76
2022/04/08 11:56:05;;;;;;;0.10;0.10;;;10.60;99.90;;;;;;4952738;29;20500;-75
2022/04/08 11:58:31;;;;;;;0.20;0.20;;;13.00;99.90;;;;;;4935169;29;20111;-76
2022/04/08 12:01:00;;;;;;;0.10;0.10;;;13.10;99.90;;;;;;4952554;29;20031;-76
2022/04/08 12:03:31;;;;;;;0.17;0.17;;;13.30;99.90;;;;;;4952480;29;20075;-76
2022/04/08 12:05:57;;;;;;;0.20;0.20;;;13.50;99.90;;;;;;4952621;29;20028;-76
2022/04/08 12:08:23;;;;;;;0.20;0.20;;;13.50;99.90;;;;;;4952049;29;20070;-76
2022/04/08 12:10:54;;;;;;;0.65;0.20;;;13.60;99.90;;;;;;4935056;29;20050;-76
2022/04/08 12:13:25;;;;;;;0.20;0.20;;;13.60;99.90;;;;;;4952707;29;20054;-77
2022/04/08 12:15:55;;;;;;;0.20;0.20;;;13.40;99.90;;;;;;4952661;29;20027;-76
2022/04/08 12:18:23;;;;;;;0.20;0.20;;;13.20;99.90;;;;;;4952730;29;20023;-76
2022/04/08 12:20:54;;;;;;;1.25;0.10;;;13.00;99.90;;;;;;4953700;29;20059;-76
2022/04/08 12:23:25;;;;;;;2.92;0.40;;;12.40;99.90;;;;;;4953408;29;20051;-76
2022/04/08 12:25:52;;;;;;;1.13;0.30;;;12.30;99.90;;;;;;4953661;29;20073;-75
2022/04/08 12:28:18;;;;;;;0.20;0.20;;;11.80;99.90;;;;;;4952117;28;20047;-76
2022/04/08 12:30:44;;;;;;;2.17;0.25;;;11.30;99.90;;;;;;4953755;29;20019;-76
2022/04/08 12:33:10;;;;;;;0.20;0.20;;;10.90;99.90;;;;;;4953129;29;20023;-76
2022/04/08 12:35:35;;;;;;;0.45;0.20;;;10.60;99.90;;;;;;4919971;29;20046;-75
2022/04/08 12:38:04;;;;;;;0.65;0.65;;;10.80;99.90;;;;;;4952842;29;20034;-76
2022/04/08 12:40:31;;;;;;;0.40;0.40;;;11.00;99.90;;;;;;4953844;29;20047;-76
2022/04/08 12:42:57;;;;;;;2.53;0.30;;;11.00;99.90;;;;;;4952995;29;20020;-77
2022/04/08 12:45:23;;;;;;;4.55;0.60;;;11.10;99.90;;;;;;4952493;29;20027;-76
2022/04/08 12:47:48;;;;;;;0.22;0.22;;;11.10;99.90;;;;;;4952542;29;20043;-78
2022/04/08 12:50:14;;;;;;;3.70;0.77;;;11.30;99.90;;;;;;4935995;29;20488;-76
2022/04/08 12:52:41;;;;;;;1.10;1.05;;;11.10;99.90;;;;;;4953064;29;20498;-76
2022/04/08 12:55:08;;;;;;;0.52;0.52;;;11.10;99.90;;;;;;4953237;29;20055;-76
2022/04/08 12:57:34;;;;;;;1.05;0.77;;;11.00;99.90;;;;;;4952828;29;20049;-76